sensor_id;sensor_type;location;lat;lon;timestamp;P1;durP1;ratioP1;P2;durP2;ratioP2
38911;SDS011;28444;48.056;14.408;2022-10-17T00:00:29;146.10;;;19.70;;
38911;SDS011;28444;48.056;14.408;2022-10-17T00:02:56;115.97;;;22.83;;
38911;SDS011;28444;48.056;14.408;2022-10-17T00:05:23;119.60;;;21.30;;
38911;SDS011;28444;48.056;14.408;2022-10-17T00:07:50;157.13;;;19.88;;
38911;SDS011;28444;48.056;14.408;2022-10-17T00:10:18;161.02;;;18.55;;
38911;SDS011;28444;48.056;14.408;2022-10-17T00:12:45;127.82;;;19.65;;
38911;SDS011;28444;48.056;14.408;2022-10-17T00:15:16;139.60;;;18.55;;
38911;SDS011;28444;48.056;14.408;2022-10-17T00:17:44;92.95;;;18.30;;
38911;SDS011;28444;48.056;14.408;2022-10-17T00:20:11;142.48;;;20.17;;
38911;SDS011;28444;48.056;14.408;2022-10-17T00:22:38;169.40;;;22.27;;
38911;SDS011;28444;48.056;14.408;2022-10-17T00:25:05;275.45;;;22.10;;
38911;SDS011;28444;48.056;14.408;2022-10-17T00:27:35;187.82;;;19.42;;
38911;SDS011;28444;48.056;14.408;2022-10-17T00:30:04;78.78;;;15.15;;
38911;SDS011;28444;48.056;14.408;2022-10-17T00:32:32;92.97;;;16.65;;
38911;SDS011;28444;48.056;14.408;2022-10-17T00:34:59;84.78;;;16.58;;
38911;SDS011;28444;48.056;14.408;2022-10-17T00:37:25;117.40;;;16.83;;
38911;SDS011;28444;48.056;14.408;2022-10-17T00:39:52;151.85;;;17.35;;
38911;SDS011;28444;48.056;14.408;2022-10-17T00:42:19;94.32;;;17.33;;
38911;SDS011;28444;48.056;14.408;2022-10-17T00:47:28;51.42;;;15.00;;
38911;SDS011;28444;48.056;14.408;2022-10-17T00:49:56;40.97;;;13.65;;
38911;SDS011;28444;48.056;14.408;2022-10-17T00:52:25;28.23;;;13.07;;
38911;SDS011;28444;48.056;14.408;2022-10-17T00:54:55;66.40;;;12.90;;
38911;SDS011;28444;48.056;14.408;2022-10-17T00:57:26;52.30;;;14.02;;
38911;SDS011;28444;48.056;14.408;2022-10-17T00:59:56;49.20;;;14.18;;
38911;SDS011;28444;48.056;14.408;2022-10-17T01:02:25;63.53;;;14.77;;
38911;SDS011;28444;48.056;14.408;2022-10-17T01:04:53;88.38;;;16.60;;
38911;SDS011;28444;48.056;14.408;2022-10-17T01:07:22;307.55;;;26.98;;
38911;SDS011;28444;48.056;14.408;2022-10-17T01:09:48;319.73;;;27.50;;
38911;SDS011;28444;48.056;14.408;2022-10-17T01:12:23;187.88;;;22.17;;
38911;SDS011;28444;48.056;14.408;2022-10-17T01:18:26;158.50;;;22.13;;
38911;SDS011;28444;48.056;14.408;2022-10-17T01:21:11;249.57;;;23.58;;
38911;SDS011;28444;48.056;14.408;2022-10-17T01:30:51;266.63;;;23.80;;
38911;SDS011;28444;48.056;14.408;2022-10-17T01:36:20;248.55;;;22.83;;
38911;SDS011;28444;48.056;14.408;2022-10-17T01:42:14;143.80;;;19.10;;
38911;SDS011;28444;48.056;14.408;2022-10-17T01:45:03;114.45;;;17.40;;
38911;SDS011;28444;48.056;14.408;2022-10-17T01:47:37;68.55;;;16.35;;
38911;SDS011;28444;48.056;14.408;2022-10-17T01:50:31;95.82;;;15.10;;
38911;SDS011;28444;48.056;14.408;2022-10-17T01:53:04;69.28;;;14.18;;
38911;SDS011;28444;48.056;14.408;2022-10-17T01:55:36;69.40;;;13.60;;
38911;SDS011;28444;48.056;14.408;2022-10-17T01:58:08;47.85;;;14.10;;
38911;SDS011;28444;48.056;14.408;2022-10-17T02:00:38;29.45;;;12.32;;
38911;SDS011;28444;48.056;14.408;2022-10-17T02:03:08;17.48;;;12.75;;
38911;SDS011;28444;48.056;14.408;2022-10-17T02:05:39;13.90;;;9.93;;
38911;SDS011;28444;48.056;14.408;2022-10-17T02:08:07;13.80;;;10.85;;
38911;SDS011;28444;48.056;14.408;2022-10-17T02:10:38;11.25;;;8.57;;
38911;SDS011;28444;48.056;14.408;2022-10-17T02:14:13;16.50;;;9.57;;
38911;SDS011;28444;48.056;14.408;2022-10-17T02:22:40;18.92;;;9.35;;
38911;SDS011;28444;48.056;14.408;2022-10-17T02:25:05;24.30;;;9.73;;
38911;SDS011;28444;48.056;14.408;2022-10-17T02:27:51;31.35;;;9.52;;
38911;SDS011;28444;48.056;14.408;2022-10-17T02:30:32;29.75;;;9.55;;
38911;SDS011;28444;48.056;14.408;2022-10-17T02:33:32;14.48;;;8.77;;
38911;SDS011;28444;48.056;14.408;2022-10-17T02:36:04;25.25;;;7.43;;
38911;SDS011;28444;48.056;14.408;2022-10-17T02:38:36;26.55;;;6.65;;
38911;SDS011;28444;48.056;14.408;2022-10-17T02:41:05;25.23;;;6.95;;
38911;SDS011;28444;48.056;14.408;2022-10-17T02:43:34;8.63;;;6.30;;
38911;SDS011;28444;48.056;14.408;2022-10-17T02:46:02;8.98;;;6.30;;
38911;SDS011;28444;48.056;14.408;2022-10-17T02:48:33;59.30;;;7.70;;
38911;SDS011;28444;48.056;14.408;2022-10-17T02:51:11;22.13;;;6.82;;
38911;SDS011;28444;48.056;14.408;2022-10-17T02:55:18;19.90;;;6.32;;
38911;SDS011;28444;48.056;14.408;2022-10-17T02:57:00;29.75;;;6.75;;
38911;SDS011;28444;48.056;14.408;2022-10-17T02:59:34;62.17;;;7.22;;
38911;SDS011;28444;48.056;14.408;2022-10-17T03:02:03;25.17;;;6.07;;
38911;SDS011;28444;48.056;14.408;2022-10-17T03:04:31;19.98;;;5.00;;
38911;SDS011;28444;48.056;14.408;2022-10-17T03:06:58;24.00;;;5.53;;
38911;SDS011;28444;48.056;14.408;2022-10-17T03:09:25;19.73;;;5.40;;
38911;SDS011;28444;48.056;14.408;2022-10-17T03:11:51;18.67;;;6.10;;
38911;SDS011;28444;48.056;14.408;2022-10-17T03:14:18;13.30;;;5.50;;
38911;SDS011;28444;48.056;14.408;2022-10-17T03:16:45;16.58;;;5.80;;
38911;SDS011;28444;48.056;14.408;2022-10-17T03:19:12;12.90;;;5.20;;
38911;SDS011;28444;48.056;14.408;2022-10-17T03:21:38;12.35;;;5.68;;
38911;SDS011;28444;48.056;14.408;2022-10-17T03:24:05;24.05;;;6.55;;
38911;SDS011;28444;48.056;14.408;2022-10-17T03:26:32;20.15;;;6.10;;
38911;SDS011;28444;48.056;14.408;2022-10-17T03:28:59;24.73;;;5.65;;
38911;SDS011;28444;48.056;14.408;2022-10-17T03:31:26;14.27;;;5.13;;
38911;SDS011;28444;48.056;14.408;2022-10-17T03:33:52;41.08;;;5.88;;
38911;SDS011;28444;48.056;14.408;2022-10-17T03:36:19;43.08;;;5.88;;
38911;SDS011;28444;48.056;14.408;2022-10-17T03:38:46;24.00;;;5.20;;
38911;SDS011;28444;48.056;14.408;2022-10-17T03:41:13;35.70;;;5.32;;
38911;SDS011;28444;48.056;14.408;2022-10-17T03:43:40;16.45;;;4.35;;
38911;SDS011;28444;48.056;14.408;2022-10-17T03:46:07;50.05;;;5.75;;
38911;SDS011;28444;48.056;14.408;2022-10-17T03:48:34;25.85;;;6.50;;
38911;SDS011;28444;48.056;14.408;2022-10-17T03:51:04;40.42;;;6.28;;
38911;SDS011;28444;48.056;14.408;2022-10-17T03:53:33;66.03;;;8.40;;
38911;SDS011;28444;48.056;14.408;2022-10-17T03:56:14;56.00;;;7.72;;
38911;SDS011;28444;48.056;14.408;2022-10-17T03:58:42;60.77;;;7.57;;
38911;SDS011;28444;48.056;14.408;2022-10-17T04:01:10;42.38;;;8.50;;
38911;SDS011;28444;48.056;14.408;2022-10-17T04:03:39;64.40;;;8.57;;
38911;SDS011;28444;48.056;14.408;2022-10-17T04:06:07;27.60;;;8.18;;
38911;SDS011;28444;48.056;14.408;2022-10-17T04:08:36;26.98;;;7.57;;
38911;SDS011;28444;48.056;14.408;2022-10-17T04:11:04;22.20;;;7.95;;
38911;SDS011;28444;48.056;14.408;2022-10-17T04:13:32;36.95;;;7.97;;
38911;SDS011;28444;48.056;14.408;2022-10-17T04:16:01;27.75;;;7.70;;
38911;SDS011;28444;48.056;14.408;2022-10-17T04:18:29;38.58;;;7.63;;
38911;SDS011;28444;48.056;14.408;2022-10-17T04:20:56;29.30;;;7.40;;
38911;SDS011;28444;48.056;14.408;2022-10-17T04:23:23;26.63;;;7.50;;
38911;SDS011;28444;48.056;14.408;2022-10-17T04:25:54;23.48;;;7.38;;
38911;SDS011;28444;48.056;14.408;2022-10-17T04:28:24;41.80;;;8.25;;
38911;SDS011;28444;48.056;14.408;2022-10-17T04:30:59;29.95;;;8.07;;
38911;SDS011;28444;48.056;14.408;2022-10-17T04:33:27;27.58;;;8.00;;
38911;SDS011;28444;48.056;14.408;2022-10-17T04:35:57;42.70;;;8.43;;
38911;SDS011;28444;48.056;14.408;2022-10-17T04:38:25;18.08;;;8.40;;
38911;SDS011;28444;48.056;14.408;2022-10-17T04:40:55;25.20;;;8.60;;
38911;SDS011;28444;48.056;14.408;2022-10-17T04:43:23;35.40;;;8.43;;
38911;SDS011;28444;48.056;14.408;2022-10-17T04:45:50;16.90;;;8.07;;
38911;SDS011;28444;48.056;14.408;2022-10-17T04:48:16;26.30;;;9.05;;
38911;SDS011;28444;48.056;14.408;2022-10-17T04:50:51;21.98;;;8.48;;
38911;SDS011;28444;48.056;14.408;2022-10-17T04:53:25;16.73;;;7.00;;
38911;SDS011;28444;48.056;14.408;2022-10-17T04:55:52;12.65;;;9.52;;
38911;SDS011;28444;48.056;14.408;2022-10-17T04:58:20;18.73;;;8.45;;
38911;SDS011;28444;48.056;14.408;2022-10-17T05:00:47;13.98;;;8.38;;
38911;SDS011;28444;48.056;14.408;2022-10-17T05:03:14;21.38;;;8.95;;
38911;SDS011;28444;48.056;14.408;2022-10-17T05:05:41;13.55;;;7.93;;
38911;SDS011;28444;48.056;14.408;2022-10-17T05:08:08;9.80;;;8.07;;
38911;SDS011;28444;48.056;14.408;2022-10-17T05:10:36;11.18;;;8.77;;
38911;SDS011;28444;48.056;14.408;2022-10-17T05:13:04;15.50;;;8.07;;
38911;SDS011;28444;48.056;14.408;2022-10-17T05:15:31;13.32;;;8.00;;
38911;SDS011;28444;48.056;14.408;2022-10-17T05:17:58;10.38;;;7.57;;
38911;SDS011;28444;48.056;14.408;2022-10-17T05:20:25;13.35;;;7.32;;
38911;SDS011;28444;48.056;14.408;2022-10-17T05:22:52;14.38;;;8.60;;
38911;SDS011;28444;48.056;14.408;2022-10-17T05:25:20;12.10;;;9.00;;
38911;SDS011;28444;48.056;14.408;2022-10-17T05:27:47;16.42;;;9.63;;
38911;SDS011;28444;48.056;14.408;2022-10-17T05:30:13;12.73;;;8.05;;
38911;SDS011;28444;48.056;14.408;2022-10-17T05:32:40;44.20;;;10.32;;
38911;SDS011;28444;48.056;14.408;2022-10-17T05:35:07;24.98;;;9.45;;
38911;SDS011;28444;48.056;14.408;2022-10-17T05:37:33;38.58;;;10.52;;
38911;SDS011;28444;48.056;14.408;2022-10-17T05:40:00;35.50;;;10.90;;
38911;SDS011;28444;48.056;14.408;2022-10-17T05:42:27;22.55;;;12.18;;
38911;SDS011;28444;48.056;14.408;2022-10-17T05:44:54;48.30;;;11.23;;
38911;SDS011;28444;48.056;14.408;2022-10-17T05:47:21;33.78;;;10.77;;
38911;SDS011;28444;48.056;14.408;2022-10-17T05:49:47;72.88;;;11.00;;
38911;SDS011;28444;48.056;14.408;2022-10-17T05:52:17;52.03;;;11.30;;
38911;SDS011;28444;48.056;14.408;2022-10-17T05:54:44;29.25;;;11.27;;
38911;SDS011;28444;48.056;14.408;2022-10-17T05:57:11;36.08;;;10.75;;
38911;SDS011;28444;48.056;14.408;2022-10-17T05:59:37;53.65;;;10.93;;
38911;SDS011;28444;48.056;14.408;2022-10-17T06:02:04;40.15;;;10.07;;
38911;SDS011;28444;48.056;14.408;2022-10-17T06:04:31;37.15;;;10.02;;
38911;SDS011;28444;48.056;14.408;2022-10-17T06:06:58;30.00;;;10.23;;
38911;SDS011;28444;48.056;14.408;2022-10-17T06:09:25;40.28;;;10.50;;
38911;SDS011;28444;48.056;14.408;2022-10-17T06:11:52;14.95;;;10.02;;
38911;SDS011;28444;48.056;14.408;2022-10-17T06:14:18;28.38;;;10.38;;
38911;SDS011;28444;48.056;14.408;2022-10-17T06:16:45;31.70;;;11.85;;
38911;SDS011;28444;48.056;14.408;2022-10-17T06:19:12;40.10;;;10.82;;
38911;SDS011;28444;48.056;14.408;2022-10-17T06:21:38;38.38;;;11.15;;
38911;SDS011;28444;48.056;14.408;2022-10-17T06:24:05;31.42;;;11.35;;
38911;SDS011;28444;48.056;14.408;2022-10-17T06:26:31;34.00;;;12.15;;
38911;SDS011;28444;48.056;14.408;2022-10-17T06:28:58;49.05;;;12.63;;
38911;SDS011;28444;48.056;14.408;2022-10-17T06:31:25;56.92;;;12.55;;
38911;SDS011;28444;48.056;14.408;2022-10-17T06:33:51;54.58;;;12.98;;
38911;SDS011;28444;48.056;14.408;2022-10-17T06:36:18;38.13;;;12.18;;
38911;SDS011;28444;48.056;14.408;2022-10-17T06:38:45;46.35;;;13.52;;
38911;SDS011;28444;48.056;14.408;2022-10-17T06:41:13;52.90;;;13.07;;
38911;SDS011;28444;48.056;14.408;2022-10-17T06:43:44;88.57;;;15.07;;
38911;SDS011;28444;48.056;14.408;2022-10-17T06:46:15;90.43;;;14.35;;
38911;SDS011;28444;48.056;14.408;2022-10-17T06:48:43;94.07;;;14.13;;
38911;SDS011;28444;48.056;14.408;2022-10-17T06:51:10;51.47;;;12.40;;
38911;SDS011;28444;48.056;14.408;2022-10-17T06:53:38;58.88;;;12.45;;
38911;SDS011;28444;48.056;14.408;2022-10-17T06:56:05;45.60;;;12.43;;
38911;SDS011;28444;48.056;14.408;2022-10-17T06:58:34;51.65;;;15.07;;
38911;SDS011;28444;48.056;14.408;2022-10-17T07:01:07;54.63;;;13.63;;
38911;SDS011;28444;48.056;14.408;2022-10-17T07:03:37;50.28;;;15.20;;
38911;SDS011;28444;48.056;14.408;2022-10-17T07:06:04;25.25;;;14.20;;
38911;SDS011;28444;48.056;14.408;2022-10-17T07:08:31;39.30;;;15.57;;
38911;SDS011;28444;48.056;14.408;2022-10-17T07:10:58;31.40;;;16.70;;
38911;SDS011;28444;48.056;14.408;2022-10-17T07:13:33;31.10;;;15.45;;
38911;SDS011;28444;48.056;14.408;2022-10-17T07:16:04;28.23;;;15.88;;
38911;SDS011;28444;48.056;14.408;2022-10-17T07:18:32;29.83;;;16.92;;
38911;SDS011;28444;48.056;14.408;2022-10-17T07:20:59;35.58;;;13.73;;
38911;SDS011;28444;48.056;14.408;2022-10-17T07:23:25;33.47;;;15.13;;
38911;SDS011;28444;48.056;14.408;2022-10-17T07:25:57;38.13;;;16.50;;
38911;SDS011;28444;48.056;14.408;2022-10-17T07:28:25;34.75;;;15.43;;
38911;SDS011;28444;48.056;14.408;2022-10-17T07:30:53;34.10;;;16.13;;
38911;SDS011;28444;48.056;14.408;2022-10-17T07:33:20;39.10;;;16.65;;
38911;SDS011;28444;48.056;14.408;2022-10-17T07:35:47;32.67;;;16.98;;
38911;SDS011;28444;48.056;14.408;2022-10-17T07:38:13;36.22;;;17.42;;
38911;SDS011;28444;48.056;14.408;2022-10-17T07:40:40;39.85;;;20.67;;
38911;SDS011;28444;48.056;14.408;2022-10-17T07:43:06;38.22;;;20.02;;
38911;SDS011;28444;48.056;14.408;2022-10-17T07:45:33;36.90;;;20.02;;
38911;SDS011;28444;48.056;14.408;2022-10-17T07:48:00;36.95;;;19.50;;
38911;SDS011;28444;48.056;14.408;2022-10-17T07:50:26;32.33;;;19.33;;
38911;SDS011;28444;48.056;14.408;2022-10-17T07:52:54;40.15;;;20.90;;
38911;SDS011;28444;48.056;14.408;2022-10-17T07:55:20;38.35;;;20.08;;
38911;SDS011;28444;48.056;14.408;2022-10-17T07:57:47;45.65;;;25.15;;
38911;SDS011;28444;48.056;14.408;2022-10-17T08:00:14;46.53;;;28.00;;
38911;SDS011;28444;48.056;14.408;2022-10-17T08:02:41;44.33;;;26.65;;
38911;SDS011;28444;48.056;14.408;2022-10-17T08:05:07;51.78;;;28.20;;
38911;SDS011;28444;48.056;14.408;2022-10-17T08:07:34;54.10;;;28.33;;
38911;SDS011;28444;48.056;14.408;2022-10-17T08:10:01;55.17;;;29.67;;
38911;SDS011;28444;48.056;14.408;2022-10-17T08:12:28;59.88;;;33.47;;
38911;SDS011;28444;48.056;14.408;2022-10-17T08:14:58;56.10;;;32.33;;
38911;SDS011;28444;48.056;14.408;2022-10-17T08:17:25;55.03;;;32.58;;
38911;SDS011;28444;48.056;14.408;2022-10-17T08:19:51;61.47;;;31.95;;
38911;SDS011;28444;48.056;14.408;2022-10-17T08:22:18;47.42;;;31.10;;
38911;SDS011;28444;48.056;14.408;2022-10-17T08:24:44;51.45;;;30.42;;
38911;SDS011;28444;48.056;14.408;2022-10-17T08:27:11;49.15;;;30.85;;
38911;SDS011;28444;48.056;14.408;2022-10-17T08:29:39;49.90;;;29.10;;
38911;SDS011;28444;48.056;14.408;2022-10-17T08:32:06;53.75;;;31.25;;
38911;SDS011;28444;48.056;14.408;2022-10-17T08:34:35;56.42;;;31.55;;
38911;SDS011;28444;48.056;14.408;2022-10-17T08:37:02;55.50;;;31.02;;
38911;SDS011;28444;48.056;14.408;2022-10-17T08:39:28;53.70;;;32.63;;
38911;SDS011;28444;48.056;14.408;2022-10-17T08:42:00;57.83;;;34.00;;
38911;SDS011;28444;48.056;14.408;2022-10-17T08:47:47;57.22;;;31.77;;
38911;SDS011;28444;48.056;14.408;2022-10-17T08:50:41;50.67;;;28.85;;
38911;SDS011;28444;48.056;14.408;2022-10-17T08:53:22;53.58;;;30.38;;
38911;SDS011;28444;48.056;14.408;2022-10-17T08:55:54;52.40;;;30.00;;
38911;SDS011;28444;48.056;14.408;2022-10-17T08:58:22;53.15;;;30.77;;
38911;SDS011;28444;48.056;14.408;2022-10-17T09:07:11;47.97;;;29.90;;
38911;SDS011;28444;48.056;14.408;2022-10-17T09:09:57;51.50;;;29.58;;
38911;SDS011;28444;48.056;14.408;2022-10-17T09:12:39;53.33;;;30.42;;
38911;SDS011;28444;48.056;14.408;2022-10-17T09:15:46;52.83;;;30.42;;
38911;SDS011;28444;48.056;14.408;2022-10-17T09:18:31;52.03;;;27.23;;
38911;SDS011;28444;48.056;14.408;2022-10-17T09:21:21;51.53;;;30.48;;
38911;SDS011;28444;48.056;14.408;2022-10-17T09:24:16;48.33;;;28.02;;
38911;SDS011;28444;48.056;14.408;2022-10-17T09:26:50;51.58;;;29.08;;
38911;SDS011;28444;48.056;14.408;2022-10-17T09:29:23;47.88;;;27.45;;
38911;SDS011;28444;48.056;14.408;2022-10-17T09:32:01;47.45;;;29.83;;
38911;SDS011;28444;48.056;14.408;2022-10-17T09:34:36;45.03;;;27.05;;
38911;SDS011;28444;48.056;14.408;2022-10-17T09:37:03;45.53;;;26.80;;
38911;SDS011;28444;48.056;14.408;2022-10-17T09:39:39;49.67;;;29.92;;
38911;SDS011;28444;48.056;14.408;2022-10-17T09:42:09;41.13;;;26.45;;
38911;SDS011;28444;48.056;14.408;2022-10-17T09:50:07;51.88;;;30.63;;
38911;SDS011;28444;48.056;14.408;2022-10-17T09:52:41;54.63;;;29.58;;
38911;SDS011;28444;48.056;14.408;2022-10-17T09:55:24;51.03;;;28.90;;
38911;SDS011;28444;48.056;14.408;2022-10-17T09:58:03;47.83;;;28.00;;
38911;SDS011;28444;48.056;14.408;2022-10-17T10:00:33;44.67;;;27.27;;
38911;SDS011;28444;48.056;14.408;2022-10-17T10:06:02;50.85;;;29.20;;
38911;SDS011;28444;48.056;14.408;2022-10-17T10:11:56;57.20;;;30.42;;
38911;SDS011;28444;48.056;14.408;2022-10-17T10:14:28;50.70;;;30.42;;
38911;SDS011;28444;48.056;14.408;2022-10-17T10:17:01;49.08;;;28.50;;
38911;SDS011;28444;48.056;14.408;2022-10-17T10:19:34;47.10;;;27.35;;
38911;SDS011;28444;48.056;14.408;2022-10-17T10:22:13;42.65;;;26.40;;
38911;SDS011;28444;48.056;14.408;2022-10-17T10:24:41;43.55;;;27.60;;
38911;SDS011;28444;48.056;14.408;2022-10-17T10:27:15;41.05;;;26.25;;
38911;SDS011;28444;48.056;14.408;2022-10-17T10:29:50;45.95;;;27.73;;
38911;SDS011;28444;48.056;14.408;2022-10-17T10:32:24;49.30;;;28.90;;
38911;SDS011;28444;48.056;14.408;2022-10-17T10:34:56;49.83;;;30.45;;
38911;SDS011;28444;48.056;14.408;2022-10-17T10:37:27;46.92;;;27.63;;
38911;SDS011;28444;48.056;14.408;2022-10-17T10:40:14;47.30;;;29.52;;
38911;SDS011;28444;48.056;14.408;2022-10-17T10:42:48;45.33;;;26.88;;
38911;SDS011;28444;48.056;14.408;2022-10-17T10:45:38;40.75;;;27.20;;
38911;SDS011;28444;48.056;14.408;2022-10-17T10:54:26;41.08;;;26.00;;
38911;SDS011;28444;48.056;14.408;2022-10-17T10:56:48;41.28;;;25.75;;
38911;SDS011;28444;48.056;14.408;2022-10-17T11:03:24;46.30;;;31.52;;
38911;SDS011;28444;48.056;14.408;2022-10-17T11:07:27;37.17;;;23.80;;
38911;SDS011;28444;48.056;14.408;2022-10-17T11:13:12;37.17;;;24.17;;
38911;SDS011;28444;48.056;14.408;2022-10-17T11:15:59;39.42;;;23.55;;
38911;SDS011;28444;48.056;14.408;2022-10-17T11:21:17;38.45;;;24.45;;
38911;SDS011;28444;48.056;14.408;2022-10-17T11:26:54;43.65;;;26.10;;
38911;SDS011;28444;48.056;14.408;2022-10-17T11:29:27;39.83;;;25.33;;
38911;SDS011;28444;48.056;14.408;2022-10-17T11:32:10;41.47;;;26.15;;
38911;SDS011;28444;48.056;14.408;2022-10-17T11:34:45;44.47;;;26.75;;
38911;SDS011;28444;48.056;14.408;2022-10-17T11:37:16;43.55;;;26.13;;
38911;SDS011;28444;48.056;14.408;2022-10-17T11:39:54;41.00;;;24.60;;
38911;SDS011;28444;48.056;14.408;2022-10-17T11:42:33;38.95;;;22.98;;
38911;SDS011;28444;48.056;14.408;2022-10-17T11:45:08;41.40;;;24.35;;
38911;SDS011;28444;48.056;14.408;2022-10-17T11:48:26;38.88;;;25.33;;
38911;SDS011;28444;48.056;14.408;2022-10-17T11:50:38;39.53;;;26.23;;
38911;SDS011;28444;48.056;14.408;2022-10-17T11:53:30;35.40;;;23.88;;
38911;SDS011;28444;48.056;14.408;2022-10-17T11:56:07;42.53;;;26.13;;
38911;SDS011;28444;48.056;14.408;2022-10-17T12:01:50;38.03;;;25.35;;
38911;SDS011;28444;48.056;14.408;2022-10-17T12:07:36;35.00;;;24.40;;
38911;SDS011;28444;48.056;14.408;2022-10-17T12:12:56;39.80;;;24.52;;
38911;SDS011;28444;48.056;14.408;2022-10-17T12:15:43;47.40;;;27.23;;
38911;SDS011;28444;48.056;14.408;2022-10-17T12:18:15;44.28;;;25.80;;
38911;SDS011;28444;48.056;14.408;2022-10-17T12:20:42;42.72;;;25.88;;
38911;SDS011;28444;48.056;14.408;2022-10-17T12:23:29;41.80;;;25.73;;
38911;SDS011;28444;48.056;14.408;2022-10-17T12:26:00;39.00;;;24.42;;
38911;SDS011;28444;48.056;14.408;2022-10-17T12:28:32;44.70;;;28.00;;
38911;SDS011;28444;48.056;14.408;2022-10-17T12:31:08;39.42;;;26.00;;
38911;SDS011;28444;48.056;14.408;2022-10-17T12:33:48;46.70;;;27.98;;
38911;SDS011;28444;48.056;14.408;2022-10-17T12:42:31;41.85;;;28.17;;
38911;SDS011;28444;48.056;14.408;2022-10-17T12:51:26;44.13;;;26.02;;
38911;SDS011;28444;48.056;14.408;2022-10-17T12:54:15;43.70;;;26.60;;
38911;SDS011;28444;48.056;14.408;2022-10-17T12:56:43;38.70;;;24.58;;
38911;SDS011;28444;48.056;14.408;2022-10-17T12:59:13;49.85;;;27.45;;
38911;SDS011;28444;48.056;14.408;2022-10-17T13:01:46;50.05;;;25.65;;
38911;SDS011;28444;48.056;14.408;2022-10-17T13:04:16;40.97;;;26.50;;
38911;SDS011;28444;48.056;14.408;2022-10-17T13:06:44;38.35;;;23.70;;
38911;SDS011;28444;48.056;14.408;2022-10-17T13:09:32;42.33;;;25.92;;
38911;SDS011;28444;48.056;14.408;2022-10-17T13:12:04;39.65;;;25.23;;
38911;SDS011;28444;48.056;14.408;2022-10-17T13:14:38;46.45;;;25.08;;
38911;SDS011;28444;48.056;14.408;2022-10-17T13:20:19;44.63;;;26.60;;
38911;SDS011;28444;48.056;14.408;2022-10-17T13:22:54;42.33;;;26.25;;
38911;SDS011;28444;48.056;14.408;2022-10-17T13:25:23;45.85;;;28.00;;
38911;SDS011;28444;48.056;14.408;2022-10-17T13:27:58;42.92;;;26.95;;
38911;SDS011;28444;48.056;14.408;2022-10-17T13:30:31;48.17;;;29.67;;
38911;SDS011;28444;48.056;14.408;2022-10-17T13:33:02;43.10;;;27.30;;
38911;SDS011;28444;48.056;14.408;2022-10-17T13:35:39;45.60;;;28.33;;
38911;SDS011;28444;48.056;14.408;2022-10-17T13:38:27;49.22;;;29.65;;
38911;SDS011;28444;48.056;14.408;2022-10-17T13:40:57;42.08;;;27.88;;
38911;SDS011;28444;48.056;14.408;2022-10-17T13:43:45;47.90;;;28.75;;
38911;SDS011;28444;48.056;14.408;2022-10-17T13:46:19;47.75;;;30.27;;
38911;SDS011;28444;48.056;14.408;2022-10-17T13:49:08;53.53;;;31.08;;
38911;SDS011;28444;48.056;14.408;2022-10-17T13:51:41;50.03;;;31.35;;
38911;SDS011;28444;48.056;14.408;2022-10-17T13:54:16;45.38;;;28.67;;
38911;SDS011;28444;48.056;14.408;2022-10-17T13:57:15;52.88;;;30.88;;
38911;SDS011;28444;48.056;14.408;2022-10-17T13:59:45;54.33;;;30.25;;
38911;SDS011;28444;48.056;14.408;2022-10-17T14:02:16;50.17;;;30.38;;
38911;SDS011;28444;48.056;14.408;2022-10-17T14:05:03;48.97;;;31.88;;
38911;SDS011;28444;48.056;14.408;2022-10-17T14:07:53;52.03;;;31.13;;
38911;SDS011;28444;48.056;14.408;2022-10-17T14:10:42;60.95;;;32.58;;
38911;SDS011;28444;48.056;14.408;2022-10-17T14:13:20;49.15;;;31.60;;
38911;SDS011;28444;48.056;14.408;2022-10-17T14:15:49;52.03;;;31.33;;
38911;SDS011;28444;48.056;14.408;2022-10-17T14:18:18;61.13;;;32.63;;
38911;SDS011;28444;48.056;14.408;2022-10-17T14:20:47;51.63;;;32.50;;
38911;SDS011;28444;48.056;14.408;2022-10-17T14:23:40;51.65;;;33.42;;
38911;SDS011;28444;48.056;14.408;2022-10-17T14:26:19;60.35;;;35.70;;
38911;SDS011;28444;48.056;14.408;2022-10-17T14:29:02;59.22;;;34.85;;
38911;SDS011;28444;48.056;14.408;2022-10-17T14:31:32;59.00;;;34.30;;
38911;SDS011;28444;48.056;14.408;2022-10-17T14:34:01;55.05;;;34.88;;
38911;SDS011;28444;48.056;14.408;2022-10-17T14:36:39;55.95;;;33.72;;
38911;SDS011;28444;48.056;14.408;2022-10-17T14:39:16;63.47;;;37.15;;
38911;SDS011;28444;48.056;14.408;2022-10-17T14:41:45;59.38;;;33.90;;
38911;SDS011;28444;48.056;14.408;2022-10-17T14:44:15;57.03;;;34.78;;
38911;SDS011;28444;48.056;14.408;2022-10-17T14:46:53;55.25;;;34.58;;
38911;SDS011;28444;48.056;14.408;2022-10-17T14:49:32;58.20;;;34.85;;
38911;SDS011;28444;48.056;14.408;2022-10-17T14:55:21;60.00;;;34.97;;
38911;SDS011;28444;48.056;14.408;2022-10-17T14:57:50;63.35;;;35.63;;
38911;SDS011;28444;48.056;14.408;2022-10-17T15:00:17;54.90;;;33.17;;
38911;SDS011;28444;48.056;14.408;2022-10-17T15:02:46;51.75;;;33.80;;
38911;SDS011;28444;48.056;14.408;2022-10-17T15:05:13;57.70;;;34.53;;
38911;SDS011;28444;48.056;14.408;2022-10-17T15:07:41;57.13;;;33.45;;
38911;SDS011;28444;48.056;14.408;2022-10-17T15:13:02;60.88;;;35.58;;
38911;SDS011;28444;48.056;14.408;2022-10-17T15:15:49;68.38;;;35.90;;
38911;SDS011;28444;48.056;14.408;2022-10-17T15:18:17;60.55;;;34.90;;
38911;SDS011;28444;48.056;14.408;2022-10-17T15:20:44;55.78;;;34.88;;
38911;SDS011;28444;48.056;14.408;2022-10-17T15:23:11;58.53;;;33.13;;
38911;SDS011;28444;48.056;14.408;2022-10-17T15:25:38;63.00;;;35.92;;
38911;SDS011;28444;48.056;14.408;2022-10-17T15:28:05;60.00;;;35.80;;
38911;SDS011;28444;48.056;14.408;2022-10-17T15:30:33;58.85;;;34.67;;
38911;SDS011;28444;48.056;14.408;2022-10-17T15:33:01;56.53;;;35.92;;
38911;SDS011;28444;48.056;14.408;2022-10-17T15:35:28;66.35;;;35.15;;
38911;SDS011;28444;48.056;14.408;2022-10-17T15:37:56;66.10;;;36.65;;
38911;SDS011;28444;48.056;14.408;2022-10-17T15:40:23;56.72;;;34.50;;
38911;SDS011;28444;48.056;14.408;2022-10-17T15:42:54;56.42;;;35.05;;
38911;SDS011;28444;48.056;14.408;2022-10-17T15:45:21;57.67;;;33.03;;
38911;SDS011;28444;48.056;14.408;2022-10-17T15:47:49;61.28;;;35.72;;
38911;SDS011;28444;48.056;14.408;2022-10-17T15:50:18;67.95;;;37.97;;
38911;SDS011;28444;48.056;14.408;2022-10-17T15:52:47;66.47;;;35.95;;
38911;SDS011;28444;48.056;14.408;2022-10-17T15:55:16;61.00;;;36.20;;
38911;SDS011;28444;48.056;14.408;2022-10-17T15:57:44;69.25;;;38.40;;
38911;SDS011;28444;48.056;14.408;2022-10-17T16:00:19;61.17;;;36.85;;
38911;SDS011;28444;48.056;14.408;2022-10-17T16:02:47;69.57;;;37.55;;
38911;SDS011;28444;48.056;14.408;2022-10-17T16:05:16;73.82;;;38.15;;
38911;SDS011;28444;48.056;14.408;2022-10-17T16:07:44;58.70;;;36.13;;
38911;SDS011;28444;48.056;14.408;2022-10-17T16:10:12;70.63;;;37.30;;
38911;SDS011;28444;48.056;14.408;2022-10-17T16:12:39;65.80;;;36.92;;
38911;SDS011;28444;48.056;14.408;2022-10-17T16:15:08;59.70;;;36.53;;